Ship Status Report: callsign BAREU11

sailwx.info

Track history (hours):
 
Tides and Currents Weather Stations Pressure Air Temp Water Temp Dewpoint Dewpoint Depression Visibility Wind Speed Wind Dir Waves Ship Positions

Callsign BAREU11 (name unknown)

Last reported at 2014-Oct-24 06:00 UTC. Time now 2014-Oct-24 07:05 UTC.
Position N 50°00' W 003°30'.

Barometer 1015.1 mb

Date/timePositionNaut miles runAvg speedWind from/ knotsBaromVisibWave heightAir tempDewpointWater temp
2014-Oct-24 06:00N 50°00' W 003°30'1515.4 1015.1
2014-Oct-24 05:00N 50°00' W 003°06'2020.2 1015.5
2014-Oct-24 04:00N 50°06' W 002°36'1515.4 1016.1
2014-Oct-24 03:00N 50°06' W 002°12'2423.8 1016.5
2014-Oct-24 02:00N 50°12' W 001°36'4020.1 1016.9
2014-Oct-24 00:00N 50°24' W 000°36'1616.4 1017.0
2014-Oct-23 23:00N 50°30' W 000°12'1616.4 1017.4
2014-Oct-23 22:00N 50°36' E 000°12'1515.2 1017.9
2014-Oct-23 21:00N 50°36' E 000°36'1919.4 1018.6
2014-Oct-23 20:00N 50°48' E 001°00'1312.9 1018.9
2014-Oct-23 19:00N 50°54' E 001°18'2323.5 1018.8
2014-Oct-23 18:00N 51°12' E 001°42'1616.5 1018.8
2014-Oct-23 17:00N 51°24' E 002°00'1515.0 1018.5
2014-Oct-23 16:00N 51°24' E 002°24'1515.0 1018.9
2014-Oct-23 15:00N 51°24' E 002°48'1515.0 1019.7
2014-Oct-23 14:00N 51°24' E 003°12'1515.0 1020.7
2014-Oct-23 13:00N 51°24' E 003°36'1111.2 1021.5
2014-Oct-23 12:00N 51°24' E 003°54'7 7.5 1021.8
2014-Oct-23 11:00N 51°24' E 004°06'10 9.6 1022.7
2014-Oct-23 10:00N 51°18' E 004°18'0 0.0 1023.6
2014-Oct-22 19:00N 51°18' E 004°18'1312.7 1023.4
2014-Oct-22 18:00N 51°24' E 004°00'10 9.6 1023.1
2014-Oct-22 17:00N 51°18' E 003°48'10 9.6 1022.8
2014-Oct-22 16:00N 51°24' E 003°36'1111.2 1022.6
2014-Oct-22 15:00N 51°24' E 003°18'1515.0 1023.1
2014-Oct-22 14:00N 51°24' E 002°54'1111.2 1023.4
2014-Oct-22 13:00N 51°24' E 002°36'0 0.0 1023.1
2014-Oct-22 12:00N 51°24' E 002°36'0 0.0 1022.8
2014-Oct-22 04:00N 51°24' E 002°36'0 0.0 1019.1
2014-Oct-22 02:00N 51°24' E 002°36'0 0.0 1017.8
2014-Oct-21 23:00N 51°24' E 002°36'0 0.0 1015.4
2014-Oct-21 07:00N 51°24' E 002°36'10 9.6 1003.6
2014-Oct-21 06:00N 51°18' E 002°24'8 7.5 1004.4
2014-Oct-21 05:00N 51°18' E 002°12'2311.7 1005.4
2014-Oct-21 03:00N 51°36' E 001°48'13 6.3 1007.0
2014-Oct-21 01:00N 51°48' E 001°42'10 9.5 1009.4
2014-Oct-21 00:00N 51°42' E 001°30'1919.1 1010.9
2014-Oct-20 23:00N 51°30' E 001°06'1111.2 1011.9
2014-Oct-20 22:00N 51°30' E 000°48'11 5.6 1012.5
2014-Oct-20 20:00N 51°30' E 000°30'0 0.0 1013.9
2014-Oct-20 19:00N 51°30' E 000°30'0 0.0 1014.4
2014-Oct-20 13:00N 51°30' E 000°30'0 0.0 1015.9
2014-Oct-20 12:00N 51°30' E 000°30'0 0.0 1016.4
2014-Oct-20 11:00N 51°30' E 000°30'19 2.3 1016.9
2014-Oct-20 03:00N 51°30' E 001°00'1312.7 1015.7
2014-Oct-20 02:00N 51°36' E 001°18'1616.4 1015.3
2014-Oct-20 01:00N 51°48' E 001°36'7 7.1 1015.3
2014-Oct-20 00:00N 51°54' E 001°42'1414.1 1014.6
2014-Oct-19 23:00N 52°06' E 001°54'9 9.5 1014.1
2014-Oct-19 22:00N 52°12' E 002°06'1312.5 1014.0
2014-Oct-19 21:00N 52°18' E 002°24'1616.3 1012.9
2014-Oct-19 20:00N 52°30' E 002°42'1212.5 1012.1
2014-Oct-19 19:00N 52°36' E 003°00'1212.5 1011.3
2014-Oct-19 18:00N 52°42' E 003°18'1616.2 1010.7
2014-Oct-19 17:00N 52°54' E 003°36'1212.4 1009.8
2014-Oct-19 16:00N 53°00' E 003°54'1212.4 1009.5
2014-Oct-19 15:00N 53°06' E 004°12'9 9.4 1009.2
2014-Oct-19 14:00N 53°12' E 004°24'1312.5 1009.5
2014-Oct-19 13:00N 53°24' E 004°30'1212.3 1009.2
2014-Oct-19 12:00N 53°30' E 004°48'1212.3 1009.3
2014-Oct-19 11:00N 53°36' E 005°06'1515.4 1009.2
2014-Oct-19 10:00N 53°42' E 005°30'1110.7 1009.0
2014-Oct-19 09:00N 53°42' E 005°48'2813.8 1009.4
2014-Oct-19 07:00N 53°54' E 006°30'1414.1 1010.6
2014-Oct-19 06:00N 53°54' E 006°54'1212.2 1011.0
2014-Oct-19 05:00N 54°00' E 007°12'1110.6 1011.7
2014-Oct-19 04:00N 54°00' E 007°30'1414.1 1012.5
2014-Oct-19 03:00N 54°00' E 007°54'1110.6 1013.4
2014-Oct-19 02:00N 54°00' E 008°12'1414.1 1014.1
2014-Oct-19 01:00N 54°00' E 008°36'1212.2 1015.1
2014-Oct-19 00:00N 53°54' E 008°54'1110.6 1015.6
2014-Oct-18 23:00N 53°54' E 009°12'1616.0 1016.4
2014-Oct-18 22:00N 53°42' E 009°30'7 7.0 1017.0
2014-Oct-18 21:00N 53°36' E 009°36'1212.3 1017.5
2014-Oct-18 20:00N 53°30' E 009°54'0 0.0 1018.4
2014-Oct-18 10:00N 53°30' E 009°54'0 0.0 1021.0
2014-Oct-18 07:00N 53°30' E 009°54'7 0.4 1021.1
2014-Oct-17 14:00N 53°36' E 009°48'7 7.1 1013.2
2014-Oct-17 13:00N 53°36' E 009°36'2311.5 1012.3
2014-Oct-17 11:00N 53°54' E 009°12'2211.0 1011.0
2014-Oct-17 09:00N 54°00' E 008°36'1414.1 1009.5
2014-Oct-17 08:00N 54°00' E 008°12'1414.1 1008.1
2014-Oct-17 07:00N 54°00' E 007°48'1918.6 1007.5
2014-Oct-17 06:00N 53°54' E 007°18'1918.7 1006.5
2014-Oct-17 05:00N 53°48' E 006°48'1918.7 1005.8
2014-Oct-17 04:00N 53°42' E 006°18'1918.8 1005.5
2014-Oct-17 03:00N 53°36' E 005°48'1918.8 1005.2
2014-Oct-17 02:00N 53°30' E 005°18'1918.8 1005.1
2014-Oct-17 01:00N 53°24' E 004°48'1616.1 1005.2
2014-Oct-17 00:00N 53°12' E 004°30'1919.4 1005.0
2014-Oct-16 23:00N 52°54' E 004°18'2121.0 1005.3
2014-Oct-16 22:00N 52°36' E 004°00'3618.1 1005.3
2014-Oct-16 20:00N 52°00' E 003°54'1111.1 1005.9
2014-Oct-16 19:00N 52°00' E 004°12'10 9.5 1006.0
2014-Oct-16 18:00N 51°54' E 004°24'0 0.0 1005.7
2014-Oct-16 08:00N 51°54' E 004°24'0 0.0 1002.3
2014-Oct-15 21:00N 51°54' E 004°24'4 0.3 1005.4
2014-Oct-15 08:00N 51°54' E 004°18'10 9.5 1006.7
2014-Oct-15 07:00N 52°00' E 004°06'1514.8 1006.3
2014-Oct-15 06:00N 52°00' E 003°42'1616.0 1005.7
2014-Oct-15 05:00N 51°54' E 003°18'1616.0 1006.0
2014-Oct-15 04:00N 51°48' E 002°54'1919.1 1006.0
2014-Oct-15 03:00N 51°36' E 002°30'1616.4 1006.3
2014-Oct-15 02:00N 51°24' E 002°12'3316.5 1006.6
2014-Oct-15 00:00N 51°00' E 001°36'1414.2 1007.5
2014-Oct-14 23:00N 50°48' E 001°24'1414.2 1007.9
2014-Oct-14 22:00N 50°36' E 001°12'1616.4 1008.5
2014-Oct-14 21:00N 50°30' E 000°48'1616.4 1008.7
2014-Oct-14 20:00N 50°24' E 000°24'1616.4 1008.5
2014-Oct-14 19:00N 50°18' E 000°00'1616.5 1008.5
2014-Oct-14 18:00N 50°12' W 000°24'1515.4 1008.4
2014-Oct-14 17:00N 50°12' W 000°48'1716.5 1007.9
2014-Oct-14 16:00N 50°06' W 001°12'2020.2 1007.8
2014-Oct-14 15:00N 50°00' W 001°42'1716.6 1007.8
2014-Oct-14 14:00N 49°54' W 002°06'3919.6 1007.9
2014-Oct-14 12:00N 49°48' W 003°06'1716.6 1008.3
2014-Oct-14 11:00N 49°42' W 003°30'1919.4 1008.6
2014-Oct-14 10:00N 49°42' W 004°00'1919.4 1008.7
2014-Oct-14 09:00N 49°42' W 004°30'1716.7 1008.9
2014-Oct-14 08:00N 49°36' W 004°54'1919.4 1008.6
2014-Oct-14 07:00N 49°36' W 005°24'   1008.2
Track history (hours):
 
Tides and Currents Weather Stations Pressure Air Temp Water Temp Dewpoint Dewpoint Depression Visibility Wind Speed Wind Dir Waves Ship Positions

Callsign BAREU11 (name unknown)

Last reported at 2014-Oct-24 06:00 UTC. Time now 2014-Oct-24 07:05 UTC.
Position N 50°00' W 003°30'.

Barometer 1015.1 mb

Date/timePositionNaut miles runAvg speedWind from/ knotsBaromVisibWave heightAir tempDewpointWater temp
2014-Oct-24 06:00N 50°00' W 003°30'1515.4 1015.1
2014-Oct-24 05:00N 50°00' W 003°06'2020.2 1015.5
2014-Oct-24 04:00N 50°06' W 002°36'1515.4 1016.1
2014-Oct-24 03:00N 50°06' W 002°12'2423.8 1016.5
2014-Oct-24 02:00N 50°12' W 001°36'4020.1 1016.9
2014-Oct-24 00:00N 50°24' W 000°36'1616.4 1017.0
2014-Oct-23 23:00N 50°30' W 000°12'1616.4 1017.4
2014-Oct-23 22:00N 50°36' E 000°12'1515.2 1017.9
2014-Oct-23 21:00N 50°36' E 000°36'1919.4 1018.6
2014-Oct-23 20:00N 50°48' E 001°00'1312.9 1018.9
2014-Oct-23 19:00N 50°54' E 001°18'2323.5 1018.8
2014-Oct-23 18:00N 51°12' E 001°42'1616.5 1018.8
2014-Oct-23 17:00N 51°24' E 002°00'1515.0 1018.5
2014-Oct-23 16:00N 51°24' E 002°24'1515.0 1018.9
2014-Oct-23 15:00N 51°24' E 002°48'1515.0 1019.7
2014-Oct-23 14:00N 51°24' E 003°12'1515.0 1020.7
2014-Oct-23 13:00N 51°24' E 003°36'1111.2 1021.5
2014-Oct-23 12:00N 51°24' E 003°54'7 7.5 1021.8
2014-Oct-23 11:00N 51°24' E 004°06'10 9.6 1022.7
2014-Oct-23 10:00N 51°18' E 004°18'0 0.0 1023.6
2014-Oct-22 19:00N 51°18' E 004°18'1312.7 1023.4
2014-Oct-22 18:00N 51°24' E 004°00'10 9.6 1023.1
2014-Oct-22 17:00N 51°18' E 003°48'10 9.6 1022.8
2014-Oct-22 16:00N 51°24' E 003°36'1111.2 1022.6
2014-Oct-22 15:00N 51°24' E 003°18'1515.0 1023.1
2014-Oct-22 14:00N 51°24' E 002°54'1111.2 1023.4
2014-Oct-22 13:00N 51°24' E 002°36'0 0.0 1023.1
2014-Oct-22 12:00N 51°24' E 002°36'0 0.0 1022.8
2014-Oct-22 04:00N 51°24' E 002°36'0 0.0 1019.1
2014-Oct-22 02:00N 51°24' E 002°36'0 0.0 1017.8
2014-Oct-21 23:00N 51°24' E 002°36'0 0.0 1015.4
2014-Oct-21 07:00N 51°24' E 002°36'10 9.6 1003.6
2014-Oct-21 06:00N 51°18' E 002°24'8 7.5 1004.4
2014-Oct-21 05:00N 51°18' E 002°12'2311.7 1005.4
2014-Oct-21 03:00N 51°36' E 001°48'13 6.3 1007.0
2014-Oct-21 01:00N 51°48' E 001°42'10 9.5 1009.4
2014-Oct-21 00:00N 51°42' E 001°30'1919.1 1010.9
2014-Oct-20 23:00N 51°30' E 001°06'1111.2 1011.9
2014-Oct-20 22:00N 51°30' E 000°48'11 5.6 1012.5
2014-Oct-20 20:00N 51°30' E 000°30'0 0.0 1013.9
2014-Oct-20 19:00N 51°30' E 000°30'0 0.0 1014.4
2014-Oct-20 13:00N 51°30' E 000°30'0 0.0 1015.9
2014-Oct-20 12:00N 51°30' E 000°30'0 0.0 1016.4
2014-Oct-20 11:00N 51°30' E 000°30'19 2.3 1016.9
2014-Oct-20 03:00N 51°30' E 001°00'1312.7 1015.7
2014-Oct-20 02:00N 51°36' E 001°18'1616.4 1015.3
2014-Oct-20 01:00N 51°48' E 001°36'7 7.1 1015.3
2014-Oct-20 00:00N 51°54' E 001°42'1414.1 1014.6
2014-Oct-19 23:00N 52°06' E 001°54'9 9.5 1014.1
2014-Oct-19 22:00N 52°12' E 002°06'1312.5 1014.0
2014-Oct-19 21:00N 52°18' E 002°24'1616.3 1012.9
2014-Oct-19 20:00N 52°30' E 002°42'1212.5 1012.1
2014-Oct-19 19:00N 52°36' E 003°00'1212.5 1011.3
2014-Oct-19 18:00N 52°42' E 003°18'1616.2 1010.7
2014-Oct-19 17:00N 52°54' E 003°36'1212.4 1009.8
2014-Oct-19 16:00N 53°00' E 003°54'1212.4 1009.5
2014-Oct-19 15:00N 53°06' E 004°12'9 9.4 1009.2
2014-Oct-19 14:00N 53°12' E 004°24'1312.5 1009.5
2014-Oct-19 13:00N 53°24' E 004°30'1212.3 1009.2
2014-Oct-19 12:00N 53°30' E 004°48'1212.3 1009.3
2014-Oct-19 11:00N 53°36' E 005°06'1515.4 1009.2
2014-Oct-19 10:00N 53°42' E 005°30'1110.7 1009.0
2014-Oct-19 09:00N 53°42' E 005°48'2813.8 1009.4
2014-Oct-19 07:00N 53°54' E 006°30'1414.1 1010.6
2014-Oct-19 06:00N 53°54' E 006°54'1212.2 1011.0
2014-Oct-19 05:00N 54°00' E 007°12'1110.6 1011.7
2014-Oct-19 04:00N 54°00' E 007°30'1414.1 1012.5
2014-Oct-19 03:00N 54°00' E 007°54'1110.6 1013.4
2014-Oct-19 02:00N 54°00' E 008°12'1414.1 1014.1
2014-Oct-19 01:00N 54°00' E 008°36'1212.2 1015.1
2014-Oct-19 00:00N 53°54' E 008°54'1110.6 1015.6
2014-Oct-18 23:00N 53°54' E 009°12'1616.0 1016.4
2014-Oct-18 22:00N 53°42' E 009°30'7 7.0 1017.0
2014-Oct-18 21:00N 53°36' E 009°36'1212.3 1017.5
2014-Oct-18 20:00N 53°30' E 009°54'0 0.0 1018.4
2014-Oct-18 10:00N 53°30' E 009°54'0 0.0 1021.0
2014-Oct-18 07:00N 53°30' E 009°54'7 0.4 1021.1
2014-Oct-17 14:00N 53°36' E 009°48'7 7.1 1013.2
2014-Oct-17 13:00N 53°36' E 009°36'2311.5 1012.3
2014-Oct-17 11:00N 53°54' E 009°12'2211.0 1011.0
2014-Oct-17 09:00N 54°00' E 008°36'1414.1 1009.5
2014-Oct-17 08:00N 54°00' E 008°12'1414.1 1008.1
2014-Oct-17 07:00N 54°00' E 007°48'1918.6 1007.5
2014-Oct-17 06:00N 53°54' E 007°18'1918.7 1006.5
2014-Oct-17 05:00N 53°48' E 006°48'1918.7 1005.8
2014-Oct-17 04:00N 53°42' E 006°18'1918.8 1005.5
2014-Oct-17 03:00N 53°36' E 005°48'1918.8 1005.2
2014-Oct-17 02:00N 53°30' E 005°18'1918.8 1005.1
2014-Oct-17 01:00N 53°24' E 004°48'1616.1 1005.2
2014-Oct-17 00:00N 53°12' E 004°30'1919.4 1005.0
2014-Oct-16 23:00N 52°54' E 004°18'2121.0 1005.3
2014-Oct-16 22:00N 52°36' E 004°00'3618.1 1005.3
2014-Oct-16 20:00N 52°00' E 003°54'1111.1 1005.9
2014-Oct-16 19:00N 52°00' E 004°12'10 9.5 1006.0
2014-Oct-16 18:00N 51°54' E 004°24'0 0.0 1005.7
2014-Oct-16 08:00N 51°54' E 004°24'0 0.0 1002.3
2014-Oct-15 21:00N 51°54' E 004°24'4 0.3 1005.4
2014-Oct-15 08:00N 51°54' E 004°18'10 9.5 1006.7
2014-Oct-15 07:00N 52°00' E 004°06'1514.8 1006.3
2014-Oct-15 06:00N 52°00' E 003°42'1616.0 1005.7
2014-Oct-15 05:00N 51°54' E 003°18'1616.0 1006.0
2014-Oct-15 04:00N 51°48' E 002°54'1919.1 1006.0
2014-Oct-15 03:00N 51°36' E 002°30'1616.4 1006.3
2014-Oct-15 02:00N 51°24' E 002°12'3316.5 1006.6
2014-Oct-15 00:00N 51°00' E 001°36'1414.2 1007.5
2014-Oct-14 23:00N 50°48' E 001°24'1414.2 1007.9
2014-Oct-14 22:00N 50°36' E 001°12'1616.4 1008.5
2014-Oct-14 21:00N 50°30' E 000°48'1616.4 1008.7
2014-Oct-14 20:00N 50°24' E 000°24'1616.4 1008.5
2014-Oct-14 19:00N 50°18' E 000°00'1616.5 1008.5
2014-Oct-14 18:00N 50°12' W 000°24'1515.4 1008.4
2014-Oct-14 17:00N 50°12' W 000°48'1716.5 1007.9
2014-Oct-14 16:00N 50°06' W 001°12'2020.2 1007.8
2014-Oct-14 15:00N 50°00' W 001°42'1716.6 1007.8
2014-Oct-14 14:00N 49°54' W 002°06'3919.6 1007.9
2014-Oct-14 12:00N 49°48' W 003°06'1716.6 1008.3
2014-Oct-14 11:00N 49°42' W 003°30'1919.4 1008.6
2014-Oct-14 10:00N 49°42' W 004°00'1919.4 1008.7
2014-Oct-14 09:00N 49°42' W 004°30'1716.7 1008.9
2014-Oct-14 08:00N 49°36' W 004°54'1919.4 1008.6
2014-Oct-14 07:00N 49°36' W 005°24'   1008.2

Dump ship's entire track history